Molenez — FGA2273 — position and weather

sailwx.info

Track history (hours):
 
Tides and Currents Weather Stations Pressure Air Temp Water Temp Dewpoint Dewpoint Depression Visibility Wind Speed Wind Dir Waves Ship Positions

Molenez

Last reported at 2017-Sep-21 18:42 UTC. Time now 2017-Sep-26 16:30 UTC.
Position N 48°23' W 004°29'.

Length 37 m; draft 2.4 m.

MMSI: 227008170.

Date/timePositionNaut miles runAvg speedWind from/ knotsBaromVisibWave heightAir tempDewpointWater temp
2017-Sep-21 18:42N 48°23' W 004°29'0 2.0
2017-Sep-21 18:30N 48°23' W 004°29'510.0
2017-Sep-21 18:00N 48°20' W 004°36'611.7
2017-Sep-21 17:30N 48°19' W 004°45'612.3
2017-Sep-21 17:00N 48°23' W 004°52'612.2
2017-Sep-21 16:30N 48°27' W 004°59'3 6.1
2017-Sep-21 16:00N 48°28' W 005°03'0 0.0
2017-Sep-21 15:30N 48°28' W 005°03'0 0.0
2017-Sep-21 15:00N 48°28' W 005°03'0 0.0
2017-Sep-21 14:30N 48°28' W 005°03'0 0.0
2017-Sep-21 14:00N 48°28' W 005°03'0 0.0
2017-Sep-21 13:30N 48°28' W 005°03'0 0.0
2017-Sep-21 13:00N 48°28' W 005°03'0 0.3
2017-Sep-21 12:30N 48°28' W 005°03'0 0.0
2017-Sep-21 12:00N 48°28' W 005°03'0 0.0
2017-Sep-21 11:30N 48°28' W 005°03'0 0.0
2017-Sep-21 11:00N 48°28' W 005°03'4 8.6
2017-Sep-21 10:30N 48°26' W 004°58'2 3.3
2017-Sep-21 10:00N 48°24' W 004°57'0 0.0
2017-Sep-21 09:30N 48°24' W 004°57'4 8.7
2017-Sep-21 09:00N 48°24' W 004°51'5 9.3
2017-Sep-21 08:30N 48°20' W 004°47'611.4
2017-Sep-21 08:00N 48°20' W 004°39'713.3
2017-Sep-21 07:30N 48°22' W 004°29'1 1.1
2017-Sep-21 07:00N 48°23' W 004°29'0 0.0
2017-Sep-21 06:30N 48°23' W 004°29'0 0.0
2017-Sep-21 06:00N 48°23' W 004°29'0 0.0
2017-Sep-21 05:30N 48°23' W 004°29'0 0.0
2017-Sep-19 17:11N 48°23' W 004°29'0 0.0
2017-Sep-19 16:59N 48°23' W 004°29'3 7.3
2017-Sep-19 16:30N 48°21' W 004°34'612.0
2017-Sep-19 16:00N 48°20' W 004°42'510.6
2017-Sep-19 15:30N 48°23' W 004°49'612.5
2017-Sep-19 15:00N 48°27' W 004°56'5 8.9
2017-Sep-19 14:26N 48°28' W 005°03'0 0.0
2017-Sep-19 13:56N 48°28' W 005°03'0 0.0
2017-Sep-19 13:26N 48°28' W 005°03'0 0.0
2017-Sep-19 12:56N 48°28' W 005°03'0 0.0
2017-Sep-19 12:26N 48°28' W 005°03'0 0.0
2017-Sep-19 11:56N 48°28' W 005°03'0 0.0
2017-Sep-19 11:26N 48°28' W 005°03'0 0.0
2017-Sep-19 10:56N 48°28' W 005°03'0 0.0
2017-Sep-19 10:26N 48°28' W 005°03'0 0.0
2017-Sep-19 09:44N 48°28' W 005°03'0 0.1
2017-Sep-19 09:30N 48°28' W 005°03'611.0
2017-Sep-19 09:00N 48°27' W 004°55'611.6
2017-Sep-19 08:30N 48°23' W 004°49'5 9.1
2017-Sep-19 08:01N 48°19' W 004°45'612.6
2017-Sep-19 07:30N 48°20' W 004°35'5 9.3
2017-Sep-19 07:00N 48°23' W 004°29'0 0.0
2017-Sep-19 06:30N 48°23' W 004°29'0 0.0
2017-Sep-19 06:00N 48°23' W 004°29'0 0.0
2017-Sep-19 05:30N 48°23' W 004°29'0 0.0
2017-Sep-19 05:00N 48°23' W 004°29'0 0.0
2017-Sep-19 04:30N 48°23' W 004°29'0 0.0
2017-Sep-19 04:00N 48°23' W 004°29'0 0.0
2017-Sep-19 03:30N 48°23' W 004°29'0 0.0
2017-Sep-19 03:00N 48°23' W 004°29'0 0.0
2017-Sep-18 16:48N 48°23' W 004°29'1 4.7
2017-Sep-18 16:30N 48°22' W 004°30'511.0
2017-Sep-18 16:01N 48°20' W 004°38'612.0
2017-Sep-18 15:30N 48°20' W 004°47'713.4
2017-Sep-18 15:00N 48°26' W 004°53'612.3
2017-Sep-18 14:30N 48°28' W 005°01'1 2.6
2017-Sep-18 14:00N 48°28' W 005°03'0 0.0
2017-Sep-18 13:30N 48°28' W 005°03'0 0.0
2017-Sep-18 13:00N 48°28' W 005°03'0 0.0
2017-Sep-18 12:30N 48°28' W 005°03'0 0.0
2017-Sep-18 12:00N 48°28' W 005°03'0 0.0
2017-Sep-18 11:30N 48°28' W 005°03'0 0.0
2017-Sep-18 11:00N 48°28' W 005°03'0 0.0
2017-Sep-18 10:30N 48°28' W 005°03'0 0.0
2017-Sep-18 10:00N 48°28' W 005°03'4 7.4
2017-Sep-18 09:30N 48°27' W 004°58'612.3
2017-Sep-18 09:00N 48°24' W 004°50'611.7
2017-Sep-18 08:31N 48°19' W 004°45'612.3
2017-Sep-18 08:01N 48°20' W 004°36'510.7
2017-Sep-18 07:30N 48°23' W 004°29'0 0.1
2017-Sep-18 07:00N 48°23' W 004°29'0 0.0
2017-Sep-18 06:30N 48°23' W 004°29'0 0.0
2017-Sep-18 06:00N 48°23' W 004°29'0 0.0
2017-Sep-18 05:30N 48°23' W 004°29'0 0.0
2017-Sep-18 05:00N 48°23' W 004°29'0 0.0
2017-Sep-18 04:30N 48°23' W 004°29'0 0.0
2017-Sep-18 04:00N 48°23' W 004°29'0 0.0
2017-Sep-18 03:30N 48°23' W 004°29'0 0.0
2017-Sep-18 03:00N 48°23' W 004°29'0 0.0
2017-Sep-18 02:30N 48°23' W 004°29'  
2017-Sep-15 15:22N 48°23' W 004°29'0 0.0
2017-Sep-15 15:00N 48°23' W 004°29'0 0.0
2017-Sep-15 14:30N 48°23' W 004°29'0 0.0
2017-Sep-15 14:00N 48°23' W 004°29'3 6.5
2017-Sep-15 13:31N 48°21' W 004°33'3 6.8
2017-Sep-15 13:00N 48°20' W 004°38'611.7
2017-Sep-15 12:31N 48°20' W 004°47'612.8
2017-Sep-15 12:00N 48°24' W 004°54'2 4.0
2017-Sep-15 11:30N 48°24' W 004°57'3 5.8
2017-Sep-15 11:00N 48°27' W 004°59'3 6.4
2017-Sep-15 10:30N 48°28' W 005°03'0 0.0
2017-Sep-15 10:00N 48°28' W 005°03'0 0.0
2017-Sep-15 09:30N 48°28' W 005°03'0 0.0
2017-Sep-15 09:00N 48°28' W 005°03'2 3.8
2017-Sep-15 08:30N 48°28' W 005°01'4 8.3
2017-Sep-15 08:00N 48°24' W 004°57'5 9.2
2017-Sep-15 07:30N 48°24' W 004°50'612.0
2017-Sep-15 07:01N 48°19' W 004°44'612.1
2017-Sep-15 06:30N 48°21' W 004°35'5 9.4
2017-Sep-15 06:00N 48°23' W 004°29'0 0.2
2017-Sep-15 05:30N 48°23' W 004°29'0 0.0
2017-Sep-15 05:00N 48°23' W 004°29'0 0.0
2017-Sep-15 04:30N 48°23' W 004°29'0 0.0
2017-Sep-15 04:00N 48°23' W 004°29'0 0.0
2017-Sep-15 03:30N 48°23' W 004°29'0 0.0
2017-Sep-15 03:00N 48°23' W 004°29'0 0.0
2017-Sep-15 02:30N 48°23' W 004°29'0 0.0
2017-Sep-15 02:00N 48°23' W 004°29'0 0.0
2017-Sep-15 01:30N 48°23' W 004°29'0 0.0
2017-Sep-15 01:00N 48°23' W 004°29'0 0.0
2017-Sep-15 00:30N 48°23' W 004°29'0 0.0
2017-Sep-15 00:00N 48°23' W 004°29'0 0.0
2017-Sep-14 23:30N 48°23' W 004°29'0 0.0
2017-Sep-14 23:00N 48°23' W 004°29'0 0.0
2017-Sep-14 22:30N 48°23' W 004°29'0 0.0
2017-Sep-14 22:00N 48°23' W 004°29'0 0.0
2017-Sep-14 21:30N 48°23' W 004°29'0 0.0
2017-Sep-14 21:00N 48°23' W 004°29'0 0.0
2017-Sep-14 20:30N 48°23' W 004°29'0 0.0
2017-Sep-14 20:00N 48°23' W 004°29'0 0.0
2017-Sep-14 19:30N 48°23' W 004°29'0 0.0
2017-Sep-14 19:00N 48°23' W 004°29'0 0.0
2017-Sep-14 18:30N 48°23' W 004°29'0 0.0
2017-Sep-14 18:00N 48°23' W 004°29'0 0.0
2017-Sep-14 17:30N 48°23' W 004°29'0 0.0
2017-Sep-14 17:00N 48°23' W 004°29'0 0.0
2017-Sep-14 16:30N 48°23' W 004°29'0 0.0
2017-Sep-14 16:00N 48°23' W 004°29'0 0.0
2017-Sep-14 15:31N 48°23' W 004°29'0 0.0
2017-Sep-14 15:00N 48°23' W 004°29'0 0.0
2017-Sep-14 14:30N 48°23' W 004°29'0 0.0
2017-Sep-14 14:00N 48°23' W 004°29'4 7.1
2017-Sep-14 13:30N 48°21' W 004°34'611.6
2017-Sep-14 13:00N 48°19' W 004°42'611.5
2017-Sep-14 12:30N 48°22' W 004°50'510.1
2017-Sep-14 11:59N 48°24' W 004°57'0 0.1
2017-Sep-14 11:30N 48°24' W 004°57'0 0.3
2017-Sep-14 11:00N 48°24' W 004°57'510.8
2017-Sep-14 10:30N 48°28' W 005°03'0 0.7
2017-Sep-14 10:00N 48°28' W 005°03'0 0.0
2017-Sep-14 09:30N 48°28' W 005°03'0 0.0
2017-Sep-14 09:00N 48°28' W 005°03'0 0.0
2017-Sep-14 08:30N 48°28' W 005°03'0 0.0
2017-Sep-14 08:00N 48°28' W 005°03'2 4.4
2017-Sep-14 07:30N 48°27' W 005°00'611.5
2017-Sep-14 07:00N 48°24' W 004°53'612.3
2017-Sep-14 06:30N 48°20' W 004°47'611.5
2017-Sep-14 06:00N 48°20' W 004°38'611.1
2017-Sep-14 05:30N 48°22' W 004°30'  
Track history (hours):
 
Tides and Currents Weather Stations Pressure Air Temp Water Temp Dewpoint Dewpoint Depression Visibility Wind Speed Wind Dir Waves Ship Positions

Molenez

Last reported at 2017-Sep-21 18:42 UTC. Time now 2017-Sep-26 16:30 UTC.
Position N 48°23' W 004°29'.

Length 37 m; draft 2.4 m.

MMSI: 227008170.

Date/timePositionNaut miles runAvg speedWind from/ knotsBaromVisibWave heightAir tempDewpointWater temp
2017-Sep-21 18:42N 48°23' W 004°29'0 2.0
2017-Sep-21 18:30N 48°23' W 004°29'510.0
2017-Sep-21 18:00N 48°20' W 004°36'611.7
2017-Sep-21 17:30N 48°19' W 004°45'612.3
2017-Sep-21 17:00N 48°23' W 004°52'612.2
2017-Sep-21 16:30N 48°27' W 004°59'3 6.1
2017-Sep-21 16:00N 48°28' W 005°03'0 0.0
2017-Sep-21 15:30N 48°28' W 005°03'0 0.0
2017-Sep-21 15:00N 48°28' W 005°03'0 0.0
2017-Sep-21 14:30N 48°28' W 005°03'0 0.0
2017-Sep-21 14:00N 48°28' W 005°03'0 0.0
2017-Sep-21 13:30N 48°28' W 005°03'0 0.0
2017-Sep-21 13:00N 48°28' W 005°03'0 0.3
2017-Sep-21 12:30N 48°28' W 005°03'0 0.0
2017-Sep-21 12:00N 48°28' W 005°03'0 0.0
2017-Sep-21 11:30N 48°28' W 005°03'0 0.0
2017-Sep-21 11:00N 48°28' W 005°03'4 8.6
2017-Sep-21 10:30N 48°26' W 004°58'2 3.3
2017-Sep-21 10:00N 48°24' W 004°57'0 0.0
2017-Sep-21 09:30N 48°24' W 004°57'4 8.7
2017-Sep-21 09:00N 48°24' W 004°51'5 9.3
2017-Sep-21 08:30N 48°20' W 004°47'611.4
2017-Sep-21 08:00N 48°20' W 004°39'713.3
2017-Sep-21 07:30N 48°22' W 004°29'1 1.1
2017-Sep-21 07:00N 48°23' W 004°29'0 0.0
2017-Sep-21 06:30N 48°23' W 004°29'0 0.0
2017-Sep-21 06:00N 48°23' W 004°29'0 0.0
2017-Sep-21 05:30N 48°23' W 004°29'0 0.0
2017-Sep-19 17:11N 48°23' W 004°29'0 0.0
2017-Sep-19 16:59N 48°23' W 004°29'3 7.3
2017-Sep-19 16:30N 48°21' W 004°34'612.0
2017-Sep-19 16:00N 48°20' W 004°42'510.6
2017-Sep-19 15:30N 48°23' W 004°49'612.5
2017-Sep-19 15:00N 48°27' W 004°56'5 8.9
2017-Sep-19 14:26N 48°28' W 005°03'0 0.0
2017-Sep-19 13:56N 48°28' W 005°03'0 0.0
2017-Sep-19 13:26N 48°28' W 005°03'0 0.0
2017-Sep-19 12:56N 48°28' W 005°03'0 0.0
2017-Sep-19 12:26N 48°28' W 005°03'0 0.0
2017-Sep-19 11:56N 48°28' W 005°03'0 0.0
2017-Sep-19 11:26N 48°28' W 005°03'0 0.0
2017-Sep-19 10:56N 48°28' W 005°03'0 0.0
2017-Sep-19 10:26N 48°28' W 005°03'0 0.0
2017-Sep-19 09:44N 48°28' W 005°03'0 0.1
2017-Sep-19 09:30N 48°28' W 005°03'611.0
2017-Sep-19 09:00N 48°27' W 004°55'611.6
2017-Sep-19 08:30N 48°23' W 004°49'5 9.1
2017-Sep-19 08:01N 48°19' W 004°45'612.6
2017-Sep-19 07:30N 48°20' W 004°35'5 9.3
2017-Sep-19 07:00N 48°23' W 004°29'0 0.0
2017-Sep-19 06:30N 48°23' W 004°29'0 0.0
2017-Sep-19 06:00N 48°23' W 004°29'0 0.0
2017-Sep-19 05:30N 48°23' W 004°29'0 0.0
2017-Sep-19 05:00N 48°23' W 004°29'0 0.0
2017-Sep-19 04:30N 48°23' W 004°29'0 0.0
2017-Sep-19 04:00N 48°23' W 004°29'0 0.0
2017-Sep-19 03:30N 48°23' W 004°29'0 0.0
2017-Sep-19 03:00N 48°23' W 004°29'0 0.0
2017-Sep-18 16:48N 48°23' W 004°29'1 4.7
2017-Sep-18 16:30N 48°22' W 004°30'511.0
2017-Sep-18 16:01N 48°20' W 004°38'612.0
2017-Sep-18 15:30N 48°20' W 004°47'713.4
2017-Sep-18 15:00N 48°26' W 004°53'612.3
2017-Sep-18 14:30N 48°28' W 005°01'1 2.6
2017-Sep-18 14:00N 48°28' W 005°03'0 0.0
2017-Sep-18 13:30N 48°28' W 005°03'0 0.0
2017-Sep-18 13:00N 48°28' W 005°03'0 0.0
2017-Sep-18 12:30N 48°28' W 005°03'0 0.0
2017-Sep-18 12:00N 48°28' W 005°03'0 0.0
2017-Sep-18 11:30N 48°28' W 005°03'0 0.0
2017-Sep-18 11:00N 48°28' W 005°03'0 0.0
2017-Sep-18 10:30N 48°28' W 005°03'0 0.0
2017-Sep-18 10:00N 48°28' W 005°03'4 7.4
2017-Sep-18 09:30N 48°27' W 004°58'612.3
2017-Sep-18 09:00N 48°24' W 004°50'611.7
2017-Sep-18 08:31N 48°19' W 004°45'612.3
2017-Sep-18 08:01N 48°20' W 004°36'510.7
2017-Sep-18 07:30N 48°23' W 004°29'0 0.1
2017-Sep-18 07:00N 48°23' W 004°29'0 0.0
2017-Sep-18 06:30N 48°23' W 004°29'0 0.0
2017-Sep-18 06:00N 48°23' W 004°29'0 0.0
2017-Sep-18 05:30N 48°23' W 004°29'0 0.0
2017-Sep-18 05:00N 48°23' W 004°29'0 0.0
2017-Sep-18 04:30N 48°23' W 004°29'0 0.0
2017-Sep-18 04:00N 48°23' W 004°29'0 0.0
2017-Sep-18 03:30N 48°23' W 004°29'0 0.0
2017-Sep-18 03:00N 48°23' W 004°29'0 0.0
2017-Sep-18 02:30N 48°23' W 004°29'  
2017-Sep-15 15:22N 48°23' W 004°29'0 0.0
2017-Sep-15 15:00N 48°23' W 004°29'0 0.0
2017-Sep-15 14:30N 48°23' W 004°29'0 0.0
2017-Sep-15 14:00N 48°23' W 004°29'3 6.5
2017-Sep-15 13:31N 48°21' W 004°33'3 6.8
2017-Sep-15 13:00N 48°20' W 004°38'611.7
2017-Sep-15 12:31N 48°20' W 004°47'612.8
2017-Sep-15 12:00N 48°24' W 004°54'2 4.0
2017-Sep-15 11:30N 48°24' W 004°57'3 5.8
2017-Sep-15 11:00N 48°27' W 004°59'3 6.4
2017-Sep-15 10:30N 48°28' W 005°03'0 0.0
2017-Sep-15 10:00N 48°28' W 005°03'0 0.0
2017-Sep-15 09:30N 48°28' W 005°03'0 0.0
2017-Sep-15 09:00N 48°28' W 005°03'2 3.8
2017-Sep-15 08:30N 48°28' W 005°01'4 8.3
2017-Sep-15 08:00N 48°24' W 004°57'5 9.2
2017-Sep-15 07:30N 48°24' W 004°50'612.0
2017-Sep-15 07:01N 48°19' W 004°44'612.1
2017-Sep-15 06:30N 48°21' W 004°35'5 9.4
2017-Sep-15 06:00N 48°23' W 004°29'0 0.2
2017-Sep-15 05:30N 48°23' W 004°29'0 0.0
2017-Sep-15 05:00N 48°23' W 004°29'0 0.0
2017-Sep-15 04:30N 48°23' W 004°29'0 0.0
2017-Sep-15 04:00N 48°23' W 004°29'0 0.0
2017-Sep-15 03:30N 48°23' W 004°29'0 0.0
2017-Sep-15 03:00N 48°23' W 004°29'0 0.0
2017-Sep-15 02:30N 48°23' W 004°29'0 0.0
2017-Sep-15 02:00N 48°23' W 004°29'0 0.0
2017-Sep-15 01:30N 48°23' W 004°29'0 0.0
2017-Sep-15 01:00N 48°23' W 004°29'0 0.0
2017-Sep-15 00:30N 48°23' W 004°29'0 0.0
2017-Sep-15 00:00N 48°23' W 004°29'0 0.0
2017-Sep-14 23:30N 48°23' W 004°29'0 0.0
2017-Sep-14 23:00N 48°23' W 004°29'0 0.0
2017-Sep-14 22:30N 48°23' W 004°29'0 0.0
2017-Sep-14 22:00N 48°23' W 004°29'0 0.0
2017-Sep-14 21:30N 48°23' W 004°29'0 0.0
2017-Sep-14 21:00N 48°23' W 004°29'0 0.0
2017-Sep-14 20:30N 48°23' W 004°29'0 0.0
2017-Sep-14 20:00N 48°23' W 004°29'0 0.0
2017-Sep-14 19:30N 48°23' W 004°29'0 0.0
2017-Sep-14 19:00N 48°23' W 004°29'0 0.0
2017-Sep-14 18:30N 48°23' W 004°29'0 0.0
2017-Sep-14 18:00N 48°23' W 004°29'0 0.0
2017-Sep-14 17:30N 48°23' W 004°29'0 0.0
2017-Sep-14 17:00N 48°23' W 004°29'0 0.0
2017-Sep-14 16:30N 48°23' W 004°29'0 0.0
2017-Sep-14 16:00N 48°23' W 004°29'0 0.0
2017-Sep-14 15:31N 48°23' W 004°29'0 0.0
2017-Sep-14 15:00N 48°23' W 004°29'0 0.0
2017-Sep-14 14:30N 48°23' W 004°29'0 0.0
2017-Sep-14 14:00N 48°23' W 004°29'4 7.1
2017-Sep-14 13:30N 48°21' W 004°34'611.6
2017-Sep-14 13:00N 48°19' W 004°42'611.5
2017-Sep-14 12:30N 48°22' W 004°50'510.1
2017-Sep-14 11:59N 48°24' W 004°57'0 0.1
2017-Sep-14 11:30N 48°24' W 004°57'0 0.3
2017-Sep-14 11:00N 48°24' W 004°57'510.8
2017-Sep-14 10:30N 48°28' W 005°03'0 0.7
2017-Sep-14 10:00N 48°28' W 005°03'0 0.0
2017-Sep-14 09:30N 48°28' W 005°03'0 0.0
2017-Sep-14 09:00N 48°28' W 005°03'0 0.0
2017-Sep-14 08:30N 48°28' W 005°03'0 0.0
2017-Sep-14 08:00N 48°28' W 005°03'2 4.4
2017-Sep-14 07:30N 48°27' W 005°00'611.5
2017-Sep-14 07:00N 48°24' W 004°53'612.3
2017-Sep-14 06:30N 48°20' W 004°47'611.5
2017-Sep-14 06:00N 48°20' W 004°38'611.1
2017-Sep-14 05:30N 48°22' W 004°30'  

Dump ship's entire track history